createdAt,value
2023-02-23T00:00:57.622Z,17.83
2023-02-23T00:02:05.888Z,18.67
2023-02-23T00:03:07.575Z,17.25
2023-02-23T00:04:10.356Z,20.10
2023-02-23T00:05:11.913Z,17.90
2023-02-23T00:06:14.642Z,19.92
2023-02-23T00:07:19.287Z,19.90
2023-02-23T00:08:23.499Z,20.35
2023-02-23T00:09:25.127Z,20.33
2023-02-23T00:10:30.487Z,18.38
2023-02-23T00:11:33.752Z,20.27
2023-02-23T00:12:36.212Z,18.92
2023-02-23T00:13:38.863Z,20.05
2023-02-23T00:14:41.398Z,20.95
2023-02-23T00:15:44.454Z,20.05
2023-02-23T00:16:47.063Z,19.52
2023-02-23T00:17:48.594Z,19.67
2023-02-23T00:18:53.872Z,19.33
2023-02-23T00:19:55.617Z,21.23
2023-02-23T00:20:58.721Z,18.98
2023-02-23T00:22:01.107Z,20.77
2023-02-23T00:23:04.564Z,20.75
2023-02-23T00:24:08.890Z,20.60
2023-02-23T00:25:12.630Z,21.17
2023-02-23T00:26:14.115Z,19.88
2023-02-23T00:27:19.031Z,19.50
2023-02-23T00:28:20.580Z,19.50
2023-02-23T00:29:25.688Z,21.05
2023-02-23T00:30:27.321Z,22.50
2023-02-23T00:31:31.560Z,19.20
2023-02-23T00:32:33.157Z,19.42
2023-02-23T00:33:35.660Z,20.90
2023-02-23T00:34:37.259Z,18.20
2023-02-23T00:35:39.745Z,19.02
2023-02-23T00:36:42.088Z,19.88
2023-02-23T00:37:45.883Z,21.35
2023-02-23T00:38:47.425Z,20.52
2023-02-23T00:39:50.245Z,19.80
2023-02-23T00:40:51.757Z,20.92
2023-02-23T00:41:55.700Z,20.05
2023-02-23T00:42:58.132Z,20.45
2023-02-23T00:44:01.924Z,21.38
2023-02-23T00:45:08.682Z,20.10
2023-02-23T00:46:11.484Z,22.00
2023-02-23T00:47:14.339Z,19.23
2023-02-23T00:48:16.868Z,21.50
2023-02-23T00:49:20.064Z,19.63
2023-02-23T00:50:23.222Z,19.25
2023-02-23T00:51:27.425Z,19.77
2023-02-23T00:52:29.937Z,19.52
2023-02-23T00:53:32.172Z,22.65
2023-02-23T00:54:34.773Z,17.80
2023-02-23T00:55:40.488Z,20.20
2023-02-23T00:56:43.355Z,21.25
2023-02-23T00:57:44.900Z,18.13
2023-02-23T00:58:47.317Z,22.13
2023-02-23T00:59:49.022Z,21.52
2023-02-23T01:00:51.699Z,21.27
2023-02-23T01:01:53.167Z,20.52
2023-02-23T01:02:56.906Z,21.65
2023-02-23T01:03:58.687Z,19.42
2023-02-23T01:05:01.277Z,21.23
2023-02-23T01:06:07.972Z,17.67
2023-02-23T01:07:12.916Z,18.20
2023-02-23T01:08:15.390Z,22.38
2023-02-23T01:09:27.129Z,17.77
2023-02-23T01:10:28.734Z,22.33
2023-02-23T01:11:31.874Z,19.67
2023-02-23T01:12:33.395Z,19.25
2023-02-23T01:13:36.367Z,20.65
2023-02-23T01:14:38.037Z,19.40
2023-02-23T01:15:44.430Z,20.30
2023-02-23T01:16:46.202Z,22.52
2023-02-23T01:17:48.694Z,19.75
2023-02-23T01:18:51.648Z,18.35
2023-02-23T01:19:55.183Z,17.75
2023-02-23T01:20:56.768Z,18.58
2023-02-23T01:21:59.278Z,20.27
2023-02-23T01:23:01.729Z,22.23
2023-02-23T01:24:05.107Z,20.48
2023-02-23T01:25:07.195Z,19.20
2023-02-23T01:26:16.410Z,15.25
2023-02-23T01:27:17.906Z,17.98
2023-02-23T01:28:20.567Z,17.17
2023-02-23T01:29:22.119Z,17.65
2023-02-23T01:30:24.620Z,16.20
2023-02-23T01:31:27.719Z,16.98
2023-02-23T01:32:31.515Z,18.77
2023-02-23T01:33:33.129Z,20.02
2023-02-23T01:34:37.006Z,17.02
2023-02-23T01:35:38.485Z,17.10
2023-02-23T01:36:42.972Z,15.68
2023-02-23T01:37:44.492Z,17.55
2023-02-23T01:38:46.985Z,15.00
2023-02-23T01:39:48.666Z,16.38
2023-02-23T01:40:51.214Z,16.88
2023-02-23T01:41:54.200Z,15.75
2023-02-23T01:42:59.281Z,19.83
2023-02-23T01:44:04.028Z,17.17
2023-02-23T01:45:32.090Z,17.73
2023-02-23T01:46:35.450Z,16.50
2023-02-23T01:47:38.101Z,13.40
2023-02-23T01:48:41.469Z,18.13
2023-02-23T01:49:44.693Z,14.68
2023-02-23T01:50:53.024Z,15.85
2023-02-23T01:51:59.540Z,15.82
2023-02-23T01:53:02.421Z,15.55
2023-02-23T01:54:08.949Z,15.50
2023-02-23T01:55:14.079Z,14.48
2023-02-23T01:56:22.130Z,13.73
2023-02-23T01:57:24.998Z,13.80
2023-02-23T01:58:29.965Z,15.63
2023-02-23T01:59:38.076Z,16.55
2023-02-23T02:00:42.104Z,12.63
2023-02-23T02:01:44.091Z,15.10
2023-02-23T02:02:49.037Z,13.30
2023-02-23T02:03:55.488Z,17.10
2023-02-23T02:05:00.201Z,14.40
2023-02-23T02:06:03.898Z,18.02
2023-02-23T02:07:07.851Z,14.90
2023-02-23T02:08:10.584Z,15.30
2023-02-23T02:09:17.637Z,12.10
2023-02-23T02:10:37.589Z,13.77
2023-02-23T02:11:44.391Z,14.98
2023-02-23T02:12:51.992Z,12.55
2023-02-23T02:13:56.994Z,12.10
2023-02-23T02:14:59.888Z,15.63
2023-02-23T02:16:16.629Z,14.82
2023-02-23T02:17:31.913Z,14.90
2023-02-23T02:18:41.803Z,14.45
2023-02-23T02:20:32.703Z,10.88
2023-02-23T02:22:11.833Z,15.05
2023-02-23T02:23:58.885Z,13.70
2023-02-23T02:25:20.664Z,16.45
2023-02-23T02:26:32.271Z,11.85
2023-02-23T02:27:57.900Z,13.27
2023-02-23T02:29:46.098Z,13.10
2023-02-23T02:31:21.036Z,13.38
2023-02-23T02:32:48.628Z,15.32
2023-02-23T02:34:07.977Z,15.40
2023-02-23T02:35:35.032Z,12.52
2023-02-23T02:37:10.948Z,11.68
2023-02-23T02:38:31.387Z,13.77
2023-02-23T02:39:44.881Z,9.30
2023-02-23T02:40:54.248Z,12.43
2023-02-23T02:42:06.458Z,13.57
2023-02-23T02:43:15.438Z,14.30
2023-02-23T02:44:22.117Z,13.00
2023-02-23T02:45:31.707Z,13.52
2023-02-23T02:46:38.754Z,11.82
2023-02-23T02:47:48.679Z,14.45
2023-02-23T02:48:57.810Z,12.57
2023-02-23T02:50:09.358Z,13.70
2023-02-23T02:51:21.961Z,11.65
2023-02-23T02:52:30.464Z,13.70
2023-02-23T02:53:41.753Z,14.75
2023-02-23T02:54:49.665Z,12.68
2023-02-23T02:55:52.886Z,15.07
2023-02-23T02:57:00.436Z,14.40
2023-02-23T02:58:07.678Z,16.17
2023-02-23T02:59:31.458Z,20.55
2023-02-23T03:00:56.103Z,21.13
2023-02-23T03:02:16.832Z,16.88
2023-02-23T03:03:52.322Z,18.00
2023-02-23T03:05:12.463Z,20.90
2023-02-23T03:06:33.302Z,19.33
2023-02-23T03:08:01.217Z,16.75
2023-02-23T03:09:30.276Z,20.80
2023-02-23T03:10:58.275Z,20.98
2023-02-23T03:12:26.094Z,21.33
2023-02-23T03:13:56.108Z,19.88
2023-02-23T03:15:26.272Z,21.33
2023-02-23T03:16:58.155Z,21.63
2023-02-23T03:18:35.461Z,18.77
2023-02-23T03:20:06.944Z,20.15
2023-02-23T03:21:34.718Z,20.35
2023-02-23T03:23:02.303Z,20.42
2023-02-23T03:24:36.061Z,22.40
2023-02-23T03:26:06.554Z,17.55
2023-02-23T03:27:33.858Z,17.55
2023-02-23T03:28:57.600Z,21.80
2023-02-23T03:30:23.626Z,21.98
2023-02-23T03:31:52.740Z,20.10
2023-02-23T03:33:17.027Z,18.73
2023-02-23T03:34:41.905Z,18.60
2023-02-23T03:36:09.728Z,20.35
2023-02-23T03:37:36.973Z,18.40
2023-02-23T03:39:04.857Z,19.02
2023-02-23T03:40:31.916Z,17.52
2023-02-23T03:41:54.558Z,16.45
2023-02-23T03:43:18.311Z,17.88
2023-02-23T03:44:44.708Z,18.67
2023-02-23T03:46:08.225Z,25.17
2023-02-23T03:47:32.858Z,20.00
2023-02-23T03:48:55.388Z,19.00
2023-02-23T03:50:21.915Z,17.70
2023-02-23T03:51:44.606Z,17.52
2023-02-23T03:53:10.375Z,19.05
2023-02-23T03:54:36.130Z,16.67
2023-02-23T03:56:01.442Z,17.30
2023-02-23T03:57:25.890Z,17.55
2023-02-23T03:58:50.529Z,17.70
2023-02-23T04:00:14.104Z,19.30
2023-02-23T04:01:36.435Z,18.63
2023-02-23T04:02:59.852Z,17.77
2023-02-23T04:04:21.644Z,18.55
2023-02-23T04:05:42.734Z,16.10
2023-02-23T04:07:05.699Z,20.20
2023-02-23T04:08:30.881Z,19.45
2023-02-23T04:09:52.324Z,17.05
2023-02-23T04:11:19.534Z,18.50
2023-02-23T04:12:45.012Z,22.15
2023-02-23T04:13:51.770Z,20.08
2023-02-23T04:14:57.528Z,16.77
2023-02-23T04:16:03.195Z,17.65
2023-02-23T04:17:06.334Z,18.10
2023-02-23T04:18:14.937Z,19.13
2023-02-23T04:19:16.530Z,22.90
2023-02-23T04:20:19.096Z,18.50
2023-02-23T04:21:21.191Z,17.98
2023-02-23T04:22:24.640Z,19.55
2023-02-23T04:23:27.089Z,19.52
2023-02-23T04:24:29.539Z,19.92
2023-02-23T04:25:32.494Z,19.25
2023-02-23T04:26:34.992Z,20.88
2023-02-23T04:27:36.869Z,20.25
2023-02-23T04:28:39.363Z,17.98
2023-02-23T04:29:40.988Z,18.10
2023-02-23T04:30:43.558Z,18.73
2023-02-23T04:31:46.219Z,20.35
2023-02-23T04:32:48.885Z,18.92
2023-02-23T04:33:55.032Z,18.15
2023-02-23T04:34:57.487Z,19.08
2023-02-23T04:35:59.005Z,16.73
2023-02-23T04:37:01.534Z,17.23
2023-02-23T04:38:04.042Z,22.08
2023-02-23T04:39:06.577Z,18.63
2023-02-23T04:40:09.461Z,20.80
2023-02-23T04:41:13.570Z,17.23
2023-02-23T04:42:15.447Z,17.23
2023-02-23T04:43:17.942Z,19.13
2023-02-23T04:44:19.680Z,19.88
2023-02-23T04:45:25.057Z,20.58
2023-02-23T04:46:26.683Z,17.50
2023-02-23T04:47:29.209Z,18.90
2023-02-23T04:48:30.755Z,20.80
2023-02-23T04:49:33.209Z,19.63
2023-02-23T04:50:34.840Z,22.27
2023-02-23T04:51:37.389Z,19.42
2023-02-23T04:52:39.012Z,16.65
2023-02-23T04:53:41.505Z,19.27
2023-02-23T04:54:43.316Z,18.70
2023-02-23T04:55:47.372Z,19.38
2023-02-23T04:56:50.261Z,20.00
2023-02-23T04:57:54.155Z,19.67
2023-02-23T04:58:55.668Z,18.27
2023-02-23T04:59:58.379Z,18.15
2023-02-23T05:01:04.793Z,17.63
2023-02-23T05:02:07.537Z,17.98
2023-02-23T05:03:09.279Z,20.48
2023-02-23T05:04:11.782Z,19.55
2023-02-23T05:05:13.265Z,20.75
2023-02-23T05:06:15.855Z,18.58
2023-02-23T05:07:17.496Z,18.17
2023-02-23T05:08:19.945Z,19.58
2023-02-23T05:09:21.461Z,18.10
2023-02-23T05:10:24.134Z,18.23
2023-02-23T05:11:26.576Z,20.67
2023-02-23T05:12:30.732Z,20.10
2023-02-23T05:13:32.544Z,19.63
2023-02-23T05:14:35.052Z,17.13
2023-02-23T05:15:37.285Z,18.15
2023-02-23T05:16:40.430Z,20.58
2023-02-23T05:17:42.486Z,18.85
2023-02-23T05:18:45.060Z,17.05
2023-02-23T05:19:46.608Z,17.50
2023-02-23T05:20:49.058Z,18.17
2023-02-23T05:21:50.683Z,16.35
2023-02-23T05:22:53.121Z,16.83
2023-02-23T05:23:54.746Z,17.55
2023-02-23T05:24:57.599Z,21.58
2023-02-23T05:26:04.141Z,16.40
2023-02-23T05:27:06.663Z,17.17
2023-02-23T05:28:09.523Z,19.20
2023-02-23T05:29:12.072Z,17.63
2023-02-23T05:30:13.909Z,17.50
2023-02-23T05:31:17.336Z,17.88
2023-02-23T05:32:19.094Z,17.67
2023-02-23T05:33:21.788Z,16.35
2023-02-23T05:34:24.135Z,18.60
2023-02-23T05:35:26.690Z,15.52
2023-02-23T05:36:28.763Z,15.82
2023-02-23T05:37:31.232Z,18.42
2023-02-23T05:38:32.715Z,17.30
2023-02-23T05:39:35.511Z,17.73
2023-02-23T05:40:37.952Z,18.27
2023-02-23T05:41:39.897Z,16.67
2023-02-23T05:42:42.377Z,21.75
2023-02-23T05:43:45.288Z,25.85
2023-02-23T05:44:47.761Z,22.73
2023-02-23T05:45:49.207Z,22.98
2023-02-23T05:46:51.655Z,23.83
2023-02-23T05:47:53.197Z,22.92
2023-02-23T05:48:58.135Z,20.85
2023-02-23T05:50:00.027Z,22.83
2023-02-23T05:51:03.518Z,23.33
2023-02-23T05:52:05.215Z,22.98
2023-02-23T05:53:07.889Z,19.95
2023-02-23T05:54:09.534Z,23.48
2023-02-23T05:55:13.277Z,20.00
2023-02-23T05:56:20.474Z,22.00
2023-02-23T05:57:22.966Z,19.73
2023-02-23T05:58:24.966Z,19.88
2023-02-23T05:59:28.760Z,17.85
2023-02-23T06:00:30.337Z,18.27
2023-02-23T06:01:33.212Z,17.00
2023-02-23T06:02:35.212Z,19.08
2023-02-23T06:03:37.832Z,17.20
2023-02-23T06:04:39.477Z,19.00
2023-02-23T06:05:42.210Z,18.33
2023-02-23T06:06:45.392Z,17.17
2023-02-23T06:07:46.924Z,19.42
2023-02-23T06:08:49.766Z,20.63
2023-02-23T06:09:51.400Z,22.15
2023-02-23T06:10:54.131Z,19.25
2023-02-23T06:11:55.939Z,19.67
2023-02-23T06:12:58.525Z,18.85
2023-02-23T06:14:00.690Z,18.60
2023-02-23T06:15:04.949Z,17.67
2023-02-23T06:16:08.406Z,19.10
2023-02-23T06:17:11.579Z,18.35
2023-02-23T06:18:13.148Z,16.10
2023-02-23T06:19:15.612Z,20.50
2023-02-23T06:20:17.284Z,17.55
2023-02-23T06:21:20.768Z,20.10
2023-02-23T06:22:23.024Z,16.70
2023-02-23T06:23:25.509Z,21.67
2023-02-23T06:24:28.683Z,19.35
2023-02-23T06:25:31.194Z,18.02
2023-02-23T06:26:33.252Z,18.50
2023-02-23T06:27:36.039Z,21.85
2023-02-23T06:28:37.635Z,18.13
2023-02-23T06:29:40.051Z,24.70
2023-02-23T06:30:42.980Z,17.45
2023-02-23T06:31:45.541Z,17.73
2023-02-23T06:32:47.086Z,14.35
2023-02-23T06:33:49.707Z,20.50
2023-02-23T06:34:51.183Z,17.25
2023-02-23T06:35:54.788Z,16.55
2023-02-23T06:36:57.436Z,17.48
2023-02-23T06:37:58.943Z,18.40
2023-02-23T06:39:02.032Z,17.55
2023-02-23T06:40:04.955Z,18.77
2023-02-23T06:41:09.058Z,17.25
2023-02-23T06:42:10.581Z,17.80
2023-02-23T06:43:13.260Z,18.80
2023-02-23T06:44:15.663Z,17.33
2023-02-23T06:45:19.169Z,16.27
2023-02-23T06:46:23.143Z,18.63
2023-02-23T06:47:24.659Z,17.60
2023-02-23T06:48:27.187Z,17.25
2023-02-23T06:49:28.890Z,19.15
2023-02-23T06:50:31.537Z,18.20
2023-02-23T06:51:33.006Z,18.73
2023-02-23T06:52:35.461Z,21.77
2023-02-23T06:53:38.314Z,22.98
2023-02-23T06:54:40.055Z,16.90
2023-02-23T06:55:42.535Z,19.98
2023-02-23T06:56:44.091Z,20.35
2023-02-23T06:57:49.693Z,19.17
2023-02-23T06:58:51.668Z,17.88
2023-02-23T06:59:54.452Z,19.08
2023-02-23T07:00:58.512Z,18.33
2023-02-23T07:02:01.857Z,18.67
2023-02-23T07:03:04.605Z,21.30
2023-02-23T07:04:06.264Z,19.35
2023-02-23T07:05:09.880Z,19.55
2023-02-23T07:06:11.425Z,20.10
2023-02-23T07:07:14.065Z,16.50
2023-02-23T07:08:16.316Z,18.45
2023-02-23T07:09:19.078Z,19.75
2023-02-23T07:10:20.944Z,17.70
2023-02-23T07:11:23.454Z,20.38
2023-02-23T07:12:24.953Z,19.15
2023-02-23T07:13:27.357Z,18.52
2023-02-23T07:14:28.898Z,16.13
2023-02-23T07:15:31.339Z,16.02
2023-02-23T07:16:32.897Z,18.50
2023-02-23T07:17:37.103Z,17.55
2023-02-23T07:18:38.803Z,21.23
2023-02-23T07:19:44.680Z,15.23
2023-02-23T07:20:47.093Z,18.00
2023-02-23T07:21:48.862Z,16.98
2023-02-23T07:22:52.178Z,18.90
2023-02-23T07:23:53.718Z,16.40
2023-02-23T07:24:56.128Z,21.23
2023-02-23T07:25:58.086Z,20.65
2023-02-23T07:27:00.533Z,21.08
2023-02-23T07:28:02.886Z,19.45
2023-02-23T07:29:05.322Z,18.63
2023-02-23T07:30:08.750Z,17.42
2023-02-23T07:31:11.309Z,18.17
2023-02-23T07:32:13.063Z,18.00
2023-02-23T07:33:16.990Z,19.48
2023-02-23T07:34:18.522Z,20.63
2023-02-23T07:35:21.561Z,17.67
2023-02-23T07:36:23.806Z,19.60
2023-02-23T07:37:26.568Z,28.55
2023-02-23T07:38:28.678Z,23.98
2023-02-23T07:39:31.258Z,21.70
2023-02-23T07:40:32.837Z,23.17
2023-02-23T07:41:35.329Z,25.58
2023-02-23T07:42:37.207Z,27.35
2023-02-23T07:43:39.638Z,26.85
2023-02-23T07:44:42.142Z,27.90
2023-02-23T07:45:45.606Z,26.65
2023-02-23T07:46:49.483Z,29.73
2023-02-23T07:47:51.064Z,27.35
2023-02-23T07:48:54.972Z,23.20
2023-02-23T07:49:57.379Z,29.73
2023-02-23T07:51:00.156Z,25.40
2023-02-23T07:52:01.927Z,22.92
2023-02-23T07:53:04.386Z,22.38
2023-02-23T07:54:06.649Z,22.25
2023-02-23T07:55:10.863Z,22.33
2023-02-23T07:56:12.901Z,23.63
2023-02-23T07:57:15.615Z,27.95
2023-02-23T07:58:17.101Z,23.00
2023-02-23T07:59:19.569Z,26.15
2023-02-23T08:00:21.790Z,25.35
2023-02-23T08:01:24.407Z,26.08
2023-02-23T08:02:26.232Z,28.23
2023-02-23T08:03:28.902Z,24.35
2023-02-23T08:04:31.802Z,27.35
2023-02-23T08:05:34.417Z,31.75
2023-02-23T08:06:35.986Z,27.42
2023-02-23T08:07:38.694Z,28.63
2023-02-23T08:08:40.332Z,30.27
2023-02-23T08:09:42.832Z,29.17
2023-02-23T08:10:44.344Z,26.77
2023-02-23T08:11:46.763Z,30.42
2023-02-23T08:12:48.314Z,29.70
2023-02-23T08:13:50.759Z,29.25
2023-02-23T08:14:53.588Z,31.25
2023-02-23T08:15:56.112Z,32.00
2023-02-23T08:16:57.693Z,34.05
2023-02-23T08:18:00.746Z,27.92
2023-02-23T08:19:02.849Z,30.60
2023-02-23T08:20:08.171Z,30.08
2023-02-23T08:21:09.681Z,31.10
2023-02-23T08:22:12.126Z,31.42
2023-02-23T08:23:13.676Z,29.70
2023-02-23T08:24:16.168Z,28.40
2023-02-23T08:25:19.008Z,31.58
2023-02-23T08:26:21.460Z,35.25
2023-02-23T08:27:24.012Z,33.53
2023-02-23T08:28:25.540Z,31.85
2023-02-23T08:29:28.092Z,30.35
2023-02-23T08:30:30.658Z,30.10
2023-02-23T08:31:33.352Z,26.92
2023-02-23T08:32:35.890Z,27.67
2023-02-23T08:33:39.191Z,32.35
2023-02-23T08:34:43.227Z,30.92
2023-02-23T08:35:46.129Z,29.73
2023-02-23T08:36:48.563Z,30.63
2023-02-23T08:37:50.216Z,31.88
2023-02-23T08:38:54.199Z,34.10
2023-02-23T08:39:56.726Z,33.72
2023-02-23T08:40:59.994Z,33.30
2023-02-23T08:42:02.927Z,34.50
2023-02-23T08:43:04.376Z,29.45
2023-02-23T08:44:07.125Z,29.83
2023-02-23T08:45:10.034Z,34.35
2023-02-23T08:46:12.805Z,27.73
2023-02-23T08:47:16.353Z,30.27
2023-02-23T08:48:18.792Z,32.92
2023-02-23T08:49:21.435Z,32.95
2023-02-23T08:50:27.265Z,27.52
2023-02-23T08:51:31.382Z,32.30
2023-02-23T08:52:32.927Z,29.50
2023-02-23T08:53:35.396Z,30.77
2023-02-23T08:54:37.786Z,29.88
2023-02-23T08:55:39.280Z,28.48
2023-02-23T08:56:42.175Z,29.88
2023-02-23T08:57:44.851Z,31.75
2023-02-23T08:58:47.602Z,31.33
2023-02-23T08:59:49.152Z,31.27
2023-02-23T09:00:51.687Z,33.55
2023-02-23T09:01:56.168Z,35.42
2023-02-23T09:02:58.611Z,34.45
2023-02-23T09:04:00.419Z,31.38
2023-02-23T09:05:02.861Z,30.40
2023-02-23T09:06:11.085Z,34.97
2023-02-23T09:07:19.265Z,34.60
2023-02-23T09:08:22.873Z,29.30
2023-02-23T09:09:25.321Z,33.42
2023-02-23T09:10:29.012Z,31.25
2023-02-23T09:11:31.410Z,30.83
2023-02-23T09:12:32.988Z,35.17
2023-02-23T09:13:36.049Z,30.15
2023-02-23T09:14:37.542Z,33.85
2023-02-23T09:15:40.841Z,31.25
2023-02-23T09:16:44.479Z,32.50
2023-02-23T09:17:47.263Z,35.50
2023-02-23T09:18:50.099Z,33.83
2023-02-23T09:19:51.858Z,32.75
2023-02-23T09:20:54.672Z,33.40
2023-02-23T09:21:56.229Z,33.08
2023-02-23T09:23:00.186Z,38.00
2023-02-23T09:24:02.392Z,38.22
2023-02-23T09:25:05.623Z,33.58
2023-02-23T09:26:08.860Z,32.42
2023-02-23T09:27:12.731Z,35.33
2023-02-23T09:28:17.031Z,29.85
2023-02-23T09:29:19.421Z,31.70
2023-02-23T09:30:21.429Z,31.83
2023-02-23T09:31:24.938Z,33.55
2023-02-23T09:32:26.714Z,34.33
2023-02-23T09:33:29.266Z,34.17
2023-02-23T09:34:30.748Z,32.47
2023-02-23T09:35:34.441Z,34.55
2023-02-23T09:36:36.985Z,37.88
2023-02-23T09:37:38.468Z,35.60
2023-02-23T09:38:42.231Z,32.10
2023-02-23T09:39:45.645Z,36.85
2023-02-23T09:40:49.822Z,38.78
2023-02-23T09:42:00.569Z,31.88
2023-02-23T09:43:06.895Z,32.95
2023-02-23T09:44:16.655Z,37.47
2023-02-23T09:45:29.896Z,32.88
2023-02-23T09:46:38.812Z,37.55
2023-02-23T09:47:50.460Z,32.30
2023-02-23T09:48:53.022Z,31.45
2023-02-23T09:49:58.857Z,35.53
2023-02-23T09:51:06.106Z,38.00
2023-02-23T09:52:15.880Z,39.63
2023-02-23T09:53:29.347Z,36.28
2023-02-23T09:54:34.439Z,36.58
2023-02-23T09:55:41.436Z,36.45
2023-02-23T09:56:48.509Z,35.72
2023-02-23T09:57:50.582Z,36.30
2023-02-23T09:58:53.306Z,35.70
2023-02-23T09:59:54.895Z,32.78
2023-02-23T10:01:17.988Z,36.13
2023-02-23T10:02:25.369Z,36.90
2023-02-23T10:03:30.722Z,34.50
2023-02-23T10:04:37.883Z,37.90
2023-02-23T10:05:44.430Z,34.30
2023-02-23T10:06:53.390Z,35.47
2023-02-23T10:07:58.789Z,33.55
2023-02-23T10:09:14.448Z,32.67
2023-02-23T10:10:27.703Z,33.30
2023-02-23T10:11:40.349Z,32.13
2023-02-23T10:12:55.259Z,34.25
2023-02-23T10:14:11.526Z,34.08
2023-02-23T10:15:18.891Z,34.05
2023-02-23T10:16:25.559Z,32.95
2023-02-23T10:17:39.986Z,33.80
2023-02-23T10:18:47.949Z,35.28
2023-02-23T10:19:56.551Z,36.53
2023-02-23T10:21:04.159Z,34.45
2023-02-23T10:22:09.188Z,34.97
2023-02-23T10:23:16.085Z,36.08
2023-02-23T10:24:25.231Z,37.78
2023-02-23T10:25:36.487Z,32.47
2023-02-23T10:26:44.064Z,36.33
2023-02-23T10:27:49.480Z,36.22
2023-02-23T10:28:53.764Z,33.95
2023-02-23T10:29:58.705Z,35.80
2023-02-23T10:31:01.999Z,38.47
2023-02-23T10:32:08.865Z,37.15
2023-02-23T10:33:17.002Z,35.70
2023-02-23T10:34:18.648Z,35.55
2023-02-23T10:35:23.457Z,36.60
2023-02-23T10:36:36.661Z,38.40
2023-02-23T10:37:39.342Z,34.15
2023-02-23T10:38:41.093Z,35.63
2023-02-23T10:39:43.776Z,31.70
2023-02-23T10:40:51.386Z,37.83
2023-02-23T10:41:55.769Z,33.65
2023-02-23T10:43:01.161Z,38.88
2023-02-23T10:44:15.805Z,33.85
2023-02-23T10:45:23.618Z,34.42
2023-02-23T10:46:32.582Z,35.05
2023-02-23T10:47:37.606Z,37.92
2023-02-23T10:48:43.195Z,37.35
2023-02-23T10:49:48.425Z,35.22
2023-02-23T10:50:51.811Z,34.65
2023-02-23T10:51:58.098Z,36.65
2023-02-23T10:53:05.533Z,35.75
2023-02-23T10:54:38.900Z,37.70
2023-02-23T10:55:41.435Z,37.35
2023-02-23T10:56:46.399Z,36.50
2023-02-23T10:57:49.124Z,37.25
2023-02-23T10:58:53.709Z,33.78
2023-02-23T11:00:01.056Z,38.97
2023-02-23T11:01:06.311Z,38.10
2023-02-23T11:02:21.820Z,37.00
2023-02-23T11:03:29.413Z,37.88
2023-02-23T11:04:35.031Z,37.35
2023-02-23T11:05:45.463Z,38.13
2023-02-23T11:06:48.622Z,40.22
2023-02-23T11:07:51.542Z,37.70
2023-02-23T11:08:54.602Z,36.78
2023-02-23T11:09:56.622Z,35.28
2023-02-23T11:11:15.985Z,35.35
2023-02-23T11:12:25.569Z,33.83
2023-02-23T11:13:29.163Z,34.42
2023-02-23T11:14:33.141Z,35.22
2023-02-23T11:15:50.615Z,37.00
2023-02-23T11:16:57.043Z,35.25
2023-02-23T11:18:00.684Z,36.03
2023-02-23T11:19:05.230Z,35.13
2023-02-23T11:20:24.868Z,37.40
2023-02-23T11:21:33.532Z,34.63
2023-02-23T11:22:37.182Z,37.55
2023-02-23T11:23:41.586Z,33.42
2023-02-23T11:24:45.780Z,34.95
2023-02-23T11:25:49.556Z,32.75
2023-02-23T11:26:53.989Z,36.67
2023-02-23T11:27:58.748Z,35.38
2023-02-23T11:29:05.656Z,34.05
2023-02-23T11:30:12.981Z,34.85
2023-02-23T11:31:19.199Z,36.42
2023-02-23T11:32:24.632Z,37.50
2023-02-23T11:33:31.535Z,33.28
2023-02-23T11:34:41.030Z,35.70
2023-02-23T11:35:42.707Z,36.42
2023-02-23T11:36:45.213Z,38.17
2023-02-23T11:37:47.070Z,37.78
2023-02-23T11:39:02.046Z,35.60
2023-02-23T11:40:20.268Z,36.63
2023-02-23T11:41:25.044Z,34.72
2023-02-23T11:42:33.450Z,38.15
2023-02-23T11:43:36.385Z,35.95
2023-02-23T11:44:38.950Z,36.90
2023-02-23T11:45:48.278Z,40.95
2023-02-23T11:46:51.442Z,35.55
2023-02-23T11:47:56.200Z,38.78
2023-02-23T11:49:01.900Z,40.58
2023-02-23T11:50:05.936Z,41.80
2023-02-23T11:51:07.698Z,39.00
2023-02-23T11:52:16.144Z,40.55
2023-02-23T11:53:22.295Z,35.67
2023-02-23T11:54:28.442Z,37.97
2023-02-23T11:55:32.758Z,37.97
2023-02-23T11:56:35.515Z,37.78
2023-02-23T11:57:38.271Z,38.00
2023-02-23T11:58:44.827Z,38.92
2023-02-23T11:59:48.123Z,44.13
2023-02-23T12:00:58.616Z,39.00
2023-02-23T12:02:07.637Z,37.45
2023-02-23T12:03:22.860Z,38.92
2023-02-23T12:04:30.164Z,39.83
2023-02-23T12:05:34.152Z,42.15
2023-02-23T12:06:39.129Z,40.33
2023-02-23T12:07:47.620Z,40.10
2023-02-23T12:08:54.674Z,38.92
2023-02-23T12:10:03.605Z,40.58
2023-02-23T12:11:13.502Z,44.17
2023-02-23T12:12:20.402Z,45.25
2023-02-23T12:13:30.067Z,44.63
2023-02-23T12:14:41.140Z,40.25
2023-02-23T12:15:50.547Z,43.05
2023-02-23T12:16:55.966Z,42.28
2023-02-23T12:18:04.154Z,44.08
2023-02-23T12:19:21.768Z,42.72
2023-02-23T12:20:28.030Z,43.45
2023-02-23T12:21:37.373Z,42.78
2023-02-23T12:22:44.608Z,41.70
2023-02-23T12:23:52.503Z,42.45
2023-02-23T12:25:02.796Z,45.53
2023-02-23T12:26:11.753Z,44.28
2023-02-23T12:27:18.448Z,43.15
2023-02-23T12:28:27.282Z,44.88
2023-02-23T12:29:36.238Z,43.03
2023-02-23T12:30:46.337Z,49.28
2023-02-23T12:31:54.226Z,42.25
2023-02-23T12:33:00.492Z,45.28
2023-02-23T12:34:12.464Z,44.47
2023-02-23T12:35:21.379Z,45.00
2023-02-23T12:36:31.695Z,46.72
2023-02-23T12:37:39.897Z,47.92
2023-02-23T12:38:51.732Z,46.45
2023-02-23T12:39:59.529Z,51.70
2023-02-23T12:41:07.984Z,48.85
2023-02-23T12:42:16.944Z,51.13
2023-02-23T12:43:26.032Z,52.92
2023-02-23T12:44:38.219Z,44.95
2023-02-23T12:45:48.691Z,49.83
2023-02-23T12:46:54.417Z,43.28
2023-02-23T12:48:12.727Z,48.65
2023-02-23T12:49:25.554Z,51.75
2023-02-23T12:50:30.543Z,47.63
2023-02-23T12:51:36.830Z,51.97
2023-02-23T12:52:44.247Z,53.67
2023-02-23T12:53:47.307Z,56.70
2023-02-23T12:54:50.133Z,50.83
2023-02-23T12:56:15.881Z,53.97
2023-02-23T12:57:28.884Z,56.42
2023-02-23T12:58:41.888Z,58.75
2023-02-23T13:00:05.026Z,55.08
2023-02-23T13:01:12.727Z,57.90
2023-02-23T13:02:23.378Z,56.25
2023-02-23T13:03:46.407Z,55.92
2023-02-23T13:05:13.099Z,56.35
2023-02-23T13:06:23.697Z,54.92
2023-02-23T13:07:38.434Z,62.25
2023-02-23T13:08:55.307Z,55.45
2023-02-23T13:10:13.010Z,54.15
2023-02-23T13:11:25.118Z,55.08
2023-02-23T13:12:45.153Z,58.10
2023-02-23T13:13:51.763Z,61.17
2023-02-23T13:15:03.055Z,56.88
2023-02-23T13:16:17.726Z,59.70
2023-02-23T13:17:38.070Z,58.03
2023-02-23T13:18:47.754Z,52.95
2023-02-23T13:19:56.048Z,54.28
2023-02-23T13:21:12.600Z,52.63
2023-02-23T13:22:27.729Z,54.75
2023-02-23T13:23:37.279Z,53.38
2023-02-23T13:24:42.998Z,53.88
2023-02-23T13:25:54.408Z,54.47
2023-02-23T13:27:01.773Z,53.35
2023-02-23T13:28:04.212Z,55.22
2023-02-23T13:29:11.776Z,54.08
2023-02-23T13:30:16.576Z,60.17
2023-02-23T13:31:26.477Z,54.05
2023-02-23T13:32:32.947Z,56.47
2023-02-23T13:33:43.932Z,56.00
2023-02-23T13:34:52.465Z,60.72
2023-02-23T13:35:55.888Z,56.95
2023-02-23T13:37:01.848Z,58.15
2023-02-23T13:38:15.337Z,57.78
2023-02-23T13:39:46.293Z,56.78
2023-02-23T13:40:54.642Z,60.67
2023-02-23T13:42:09.697Z,57.83
2023-02-23T13:43:23.039Z,74.38
2023-02-23T13:44:31.810Z,53.40
2023-02-23T13:45:49.705Z,51.30
2023-02-23T13:46:59.014Z,55.17
2023-02-23T13:48:07.795Z,54.58
2023-02-23T13:49:24.765Z,57.22
2023-02-23T13:50:32.222Z,54.20
2023-02-23T13:51:42.799Z,56.40
2023-02-23T13:52:46.189Z,55.33
2023-02-23T13:54:01.094Z,55.03
2023-02-23T13:55:04.320Z,54.35
2023-02-23T13:56:10.200Z,57.15
2023-02-23T13:57:16.718Z,61.10
2023-02-23T13:58:27.610Z,54.70
2023-02-23T14:00:34.932Z,54.47
2023-02-23T14:01:40.011Z,54.08
2023-02-23T14:02:43.014Z,53.40
2023-02-23T14:03:55.677Z,54.28
2023-02-23T14:05:02.104Z,54.20
2023-02-23T14:06:04.380Z,56.10
2023-02-23T14:07:19.627Z,56.13
2023-02-23T14:08:27.964Z,55.85
2023-02-23T14:09:33.676Z,53.70
2023-02-23T14:10:39.005Z,56.50
2023-02-23T14:11:52.447Z,58.20
2023-02-23T14:13:07.166Z,56.13
2023-02-23T14:14:14.211Z,58.08
2023-02-23T14:15:41.632Z,51.75
2023-02-23T14:16:46.431Z,55.90
2023-02-23T14:18:00.574Z,56.10
2023-02-23T14:19:32.044Z,57.95
2023-02-23T14:20:47.894Z,57.80
2023-02-23T14:21:52.930Z,55.88
2023-02-23T14:23:26.886Z,52.10
2023-02-23T14:24:29.777Z,53.95
2023-02-23T14:25:45.490Z,61.08